createdAt,value
2018-05-15T00:02:00.856Z,16.50
2018-05-15T00:04:33.203Z,16.50
2018-05-15T00:07:06.323Z,16.10
2018-05-15T00:09:38.669Z,16.10
2018-05-15T00:12:10.978Z,16.00
2018-05-15T00:14:43.352Z,16.10
2018-05-15T00:17:16.448Z,15.90
2018-05-15T00:19:48.930Z,15.80
2018-05-15T00:22:21.522Z,15.80
2018-05-15T00:24:53.782Z,15.80
2018-05-15T00:27:26.145Z,15.80
2018-05-15T00:29:58.567Z,15.80
2018-05-15T00:32:31.608Z,15.60
2018-05-15T00:35:03.907Z,15.60
2018-05-15T00:37:37.077Z,15.50
2018-05-15T00:40:09.465Z,15.50
2018-05-15T00:42:41.692Z,15.40
2018-05-15T00:45:14.037Z,15.30
2018-05-15T00:47:47.082Z,15.20
2018-05-15T00:50:19.408Z,15.20
2018-05-15T00:52:51.873Z,15.30
2018-05-15T00:55:36.502Z,15.20
2018-05-15T00:58:09.594Z,15.00
2018-05-15T01:00:42.071Z,15.00
2018-05-15T01:03:14.427Z,15.00
2018-05-15T01:05:46.710Z,14.90
2018-05-15T01:08:19.034Z,14.80
2018-05-15T01:10:51.331Z,14.90
2018-05-15T01:13:23.684Z,14.90
2018-05-15T01:15:55.966Z,14.90
2018-05-15T01:18:28.300Z,14.80
2018-05-15T01:21:00.638Z,14.80
2018-05-15T01:23:32.986Z,14.70
2018-05-15T01:26:05.430Z,14.60
2018-05-15T01:28:37.766Z,14.50
2018-05-15T01:31:10.154Z,14.60
2018-05-15T01:33:43.309Z,14.40
2018-05-15T01:36:15.700Z,14.40
2018-05-15T01:38:48.164Z,14.40
2018-05-15T01:41:20.646Z,14.50
2018-05-15T01:43:52.982Z,14.50
2018-05-15T01:46:25.321Z,14.40
2018-05-15T01:48:58.483Z,14.40
2018-05-15T01:51:30.848Z,14.40
2018-05-15T01:54:03.183Z,14.30
2018-05-15T01:56:36.207Z,14.30
2018-05-15T01:59:08.555Z,14.20
2018-05-15T02:01:40.864Z,14.10
2018-05-15T02:04:13.158Z,14.10
2018-05-15T02:06:46.256Z,14.10
2018-05-15T02:09:18.621Z,14.10
2018-05-15T02:11:51.785Z,14.20
2018-05-15T02:14:24.139Z,14.10
2018-05-15T02:16:56.467Z,14.20
2018-05-15T02:19:28.767Z,14.20
2018-05-15T02:22:01.495Z,14.10
2018-05-15T02:24:34.611Z,13.90
2018-05-15T02:27:06.920Z,13.90
2018-05-15T02:29:39.300Z,13.80
2018-05-15T02:32:11.807Z,13.80
2018-05-15T02:34:44.981Z,13.70
2018-05-15T02:37:18.101Z,13.80
2018-05-15T02:39:50.425Z,13.80
2018-05-15T02:42:22.862Z,13.90
2018-05-15T02:44:55.168Z,13.90
2018-05-15T02:47:27.568Z,13.90
2018-05-15T02:50:00.753Z,13.80
2018-05-15T02:52:33.959Z,13.80
2018-05-15T02:55:07.115Z,13.80
2018-05-15T02:57:39.413Z,13.80
2018-05-15T03:00:12.570Z,13.70
2018-05-15T03:02:45.015Z,13.70
2018-05-15T03:05:17.319Z,13.70
2018-05-15T03:07:49.682Z,13.60
2018-05-15T03:10:22.074Z,13.70
2018-05-15T03:12:54.445Z,13.60
2018-05-15T03:15:26.805Z,13.50
2018-05-15T03:17:59.142Z,13.50
2018-05-15T03:20:31.534Z,13.50
2018-05-15T03:23:04.612Z,13.30
2018-05-15T03:25:37.026Z,13.30
2018-05-15T03:28:09.374Z,13.30
2018-05-15T03:30:41.649Z,13.20
2018-05-15T03:33:14.038Z,13.30
2018-05-15T03:35:46.341Z,13.20
2018-05-15T03:38:18.715Z,13.10
2018-05-15T03:40:51.790Z,13.10
2018-05-15T03:43:25.030Z,13.00
2018-05-15T03:45:57.365Z,13.00
2018-05-15T03:48:30.369Z,13.10
2018-05-15T03:51:02.683Z,13.10
2018-05-15T03:53:35.113Z,13.10
2018-05-15T03:56:07.473Z,13.20
2018-05-15T03:58:40.610Z,13.10
2018-05-15T04:01:25.404Z,13.10
2018-05-15T04:04:10.315Z,13.10
2018-05-15T04:06:54.965Z,13.00
2018-05-15T04:09:28.052Z,13.00
2018-05-15T04:12:01.083Z,13.00
2018-05-15T04:14:40.398Z,12.90
2018-05-15T04:17:12.800Z,13.10
2018-05-15T04:19:45.143Z,13.00
2018-05-15T04:22:18.403Z,13.10
2018-05-15T04:24:50.731Z,13.20
2018-05-15T04:27:22.960Z,13.20
2018-05-15T04:29:56.094Z,13.30
2018-05-15T04:32:28.368Z,13.30
2018-05-15T04:35:00.797Z,13.30
2018-05-15T04:37:33.934Z,13.30
2018-05-15T04:40:06.298Z,13.20
2018-05-15T04:42:38.575Z,13.30
2018-05-15T04:45:10.886Z,13.40
2018-05-15T04:47:43.955Z,13.70
2018-05-15T04:50:16.329Z,13.70
2018-05-15T04:52:48.696Z,13.70
2018-05-15T04:55:21.000Z,13.80
2018-05-15T04:57:53.318Z,13.90
2018-05-15T05:00:25.675Z,14.00
2018-05-15T05:02:57.941Z,14.00
2018-05-15T05:05:30.290Z,14.20
2018-05-15T05:08:03.646Z,14.30
2018-05-15T05:10:36.045Z,14.30
2018-05-15T05:13:08.377Z,14.40
2018-05-15T05:15:40.702Z,14.50
2018-05-15T05:18:13.845Z,14.60
2018-05-15T05:20:46.139Z,14.60
2018-05-15T05:23:18.392Z,14.70
2018-05-15T05:25:50.755Z,14.80
2018-05-15T05:28:23.139Z,14.80
2018-05-15T05:30:55.491Z,14.90
2018-05-15T05:33:27.919Z,15.00
2018-05-15T05:36:01.085Z,15.10
2018-05-15T05:38:33.410Z,15.10
2018-05-15T05:41:05.805Z,15.10
2018-05-15T05:43:38.180Z,15.20
2018-05-15T05:46:10.500Z,15.30
2018-05-15T05:48:43.684Z,15.40
2018-05-15T05:51:16.003Z,15.40
2018-05-15T05:53:48.353Z,15.50
2018-05-15T05:56:20.711Z,15.60
2018-05-15T05:58:53.031Z,15.70
2018-05-15T06:01:25.561Z,15.70
2018-05-15T06:03:58.725Z,15.80
2018-05-15T06:06:31.308Z,15.80
2018-05-15T06:09:03.688Z,15.90
2018-05-15T06:11:36.161Z,16.10
2018-05-15T06:14:08.448Z,16.20
2018-05-15T06:16:40.763Z,16.30
2018-05-15T06:19:13.356Z,16.40
2018-05-15T06:21:45.671Z,16.50
2018-05-15T06:24:18.786Z,16.90
2018-05-15T06:26:51.193Z,16.90
2018-05-15T06:29:23.576Z,17.00
2018-05-15T06:31:55.997Z,17.30
2018-05-15T06:34:28.325Z,18.00
2018-05-15T06:37:00.680Z,19.00
2018-05-15T06:39:33.042Z,19.90
2018-05-15T06:42:05.385Z,20.50
2018-05-15T06:44:37.855Z,21.10
2018-05-15T06:47:10.151Z,21.70
2018-05-15T06:49:42.486Z,22.30
2018-05-15T06:52:14.869Z,23.20
2018-05-15T06:54:47.284Z,23.00
2018-05-15T06:57:19.598Z,23.30
2018-05-15T06:59:52.565Z,23.60
2018-05-15T07:02:25.723Z,24.50
2018-05-15T07:04:58.058Z,24.50
2018-05-15T07:07:31.225Z,24.30
2018-05-15T07:10:03.634Z,24.20
2018-05-15T07:12:35.975Z,23.80
2018-05-15T07:15:08.218Z,23.80
2018-05-15T07:17:40.516Z,23.80
2018-05-15T07:20:12.849Z,24.30
2018-05-15T07:22:45.281Z,24.70
2018-05-15T07:25:18.326Z,25.70
2018-05-15T07:27:50.797Z,25.60
2018-05-15T07:30:23.171Z,26.60
2018-05-15T07:32:55.517Z,28.00
2018-05-15T07:35:27.867Z,28.00
2018-05-15T07:38:00.088Z,28.50
2018-05-15T07:40:32.446Z,28.70
2018-05-15T07:43:04.851Z,28.90
2018-05-15T07:45:37.897Z,29.00
2018-05-15T07:48:10.345Z,29.00
2018-05-15T07:50:42.663Z,29.00
2018-05-15T07:53:14.982Z,28.50
2018-05-15T07:55:47.309Z,28.90
2018-05-15T07:58:19.700Z,29.10
2018-05-15T08:00:52.045Z,29.80
2018-05-15T08:03:24.324Z,30.00
2018-05-15T08:05:56.626Z,29.10
2018-05-15T08:08:29.719Z,28.80
2018-05-15T08:11:02.892Z,29.10
2018-05-15T08:13:35.214Z,29.00
2018-05-15T08:16:07.518Z,29.10
2018-05-15T08:18:39.931Z,30.00
2018-05-15T08:21:13.038Z,30.50
2018-05-15T08:23:45.477Z,30.50
2018-05-15T08:26:17.943Z,29.70
2018-05-15T08:28:50.225Z,29.30
2018-05-15T08:31:22.515Z,30.70
2018-05-15T08:33:55.452Z,30.90
2018-05-15T08:36:27.797Z,30.90
2018-05-15T08:39:00.104Z,30.50
2018-05-15T08:41:32.455Z,31.10
2018-05-15T08:44:04.930Z,31.10
2018-05-15T08:46:37.953Z,31.40
2018-05-15T08:49:10.339Z,31.40
2018-05-15T08:51:43.480Z,31.10
2018-05-15T08:54:16.635Z,31.60
2018-05-15T08:56:49.782Z,32.10
2018-05-15T08:59:22.150Z,32.00
2018-05-15T09:01:54.549Z,31.50
2018-05-15T09:04:26.836Z,31.70
2018-05-15T09:06:59.913Z,31.90
2018-05-15T09:09:32.279Z,31.90
2018-05-15T09:12:04.640Z,31.50
2018-05-15T09:14:37.091Z,31.30
2018-05-15T09:17:10.104Z,32.10
2018-05-15T09:19:42.490Z,32.00
2018-05-15T09:22:14.789Z,32.30
2018-05-15T09:24:47.151Z,32.00
2018-05-15T09:27:19.562Z,32.30
2018-05-15T09:29:51.878Z,32.00
2018-05-15T09:32:24.199Z,30.90
2018-05-15T09:34:56.604Z,30.70
2018-05-15T09:37:28.861Z,30.90
2018-05-15T09:40:01.028Z,30.80
2018-05-15T09:42:33.323Z,31.20
2018-05-15T09:45:05.776Z,31.20
2018-05-15T09:47:38.044Z,31.60
2018-05-15T09:50:10.441Z,31.90
2018-05-15T09:52:42.751Z,31.40
2018-05-15T09:55:15.125Z,30.90
2018-05-15T09:57:47.660Z,31.20
2018-05-15T10:00:20.056Z,31.00
2018-05-15T10:02:53.201Z,29.70
2018-05-15T10:05:25.556Z,29.70
2018-05-15T10:07:57.996Z,28.40
2018-05-15T10:10:30.262Z,27.70
2018-05-15T10:13:03.289Z,27.10
2018-05-15T10:15:36.369Z,27.10
2018-05-15T10:18:08.678Z,27.00
2018-05-15T10:20:41.007Z,26.80
2018-05-15T10:23:13.305Z,26.40
2018-05-15T10:25:45.752Z,26.70
2018-05-15T10:28:18.102Z,26.80
2018-05-15T10:30:51.222Z,26.60
2018-05-15T10:33:23.800Z,26.60
2018-05-15T10:35:56.201Z,26.40
2018-05-15T10:38:28.544Z,26.20
2018-05-15T10:41:00.963Z,26.40
2018-05-15T10:43:33.285Z,26.40
2018-05-15T10:46:05.647Z,26.60
2018-05-15T10:48:37.977Z,26.80
2018-05-15T10:51:10.764Z,26.60
2018-05-15T10:53:43.054Z,26.50
2018-05-15T10:56:15.396Z,26.50
2018-05-15T10:58:47.733Z,26.20
2018-05-15T11:01:20.061Z,26.60
2018-05-15T11:03:52.473Z,26.70
2018-05-15T11:06:24.829Z,26.70
2018-05-15T11:08:57.152Z,26.40
2018-05-15T11:11:29.989Z,26.60
2018-05-15T11:14:03.023Z,26.80
2018-05-15T11:16:35.345Z,26.80
2018-05-15T11:19:20.794Z,26.70
2018-05-15T11:22:05.924Z,26.70
2018-05-15T11:24:50.739Z,26.20
2018-05-15T11:27:23.221Z,26.40
2018-05-15T11:29:55.606Z,26.20
2018-05-15T11:32:27.947Z,25.90
2018-05-15T11:35:00.199Z,26.10
2018-05-15T11:37:32.664Z,25.60
2018-05-15T11:40:05.168Z,26.00
2018-05-15T11:42:37.575Z,25.90
2018-05-15T11:45:10.705Z,25.60
2018-05-15T11:47:43.395Z,25.60
2018-05-15T11:50:17.285Z,25.70
2018-05-15T11:52:50.129Z,25.80
2018-05-15T11:55:22.651Z,25.70
2018-05-15T11:57:55.002Z,25.70
2018-05-15T12:00:27.321Z,25.90
2018-05-15T12:02:59.713Z,26.10
2018-05-15T12:05:32.872Z,25.80
2018-05-15T12:08:05.348Z,25.80
2018-05-15T12:10:37.808Z,25.80
2018-05-15T12:13:10.912Z,25.80
2018-05-15T12:15:43.179Z,25.80
2018-05-15T12:18:15.383Z,25.60
2018-05-15T12:20:48.388Z,25.60
2018-05-15T12:23:21.566Z,25.40
2018-05-15T12:25:54.668Z,25.30
2018-05-15T12:28:27.695Z,25.40
2018-05-15T12:31:00.074Z,25.30
2018-05-15T12:33:32.432Z,25.10
2018-05-15T12:36:04.773Z,25.00
2018-05-15T12:38:37.226Z,24.90
2018-05-15T12:41:09.715Z,24.80
2018-05-15T12:43:42.125Z,24.80
2018-05-15T12:46:14.557Z,24.80
2018-05-15T12:48:47.765Z,25.10
2018-05-15T12:51:20.060Z,25.10
2018-05-15T12:53:52.691Z,24.80
2018-05-15T12:56:25.739Z,24.90
2018-05-15T12:58:58.124Z,24.80
2018-05-15T13:01:30.721Z,24.80
2018-05-15T13:04:03.013Z,24.60
2018-05-15T13:06:36.005Z,24.10
2018-05-15T13:09:09.041Z,24.00
2018-05-15T13:11:41.368Z,24.00
2018-05-15T13:14:14.521Z,23.90
2018-05-15T13:16:46.853Z,23.80
2018-05-15T13:19:19.182Z,24.00
2018-05-15T13:21:51.411Z,24.30
2018-05-15T13:24:23.800Z,24.40
2018-05-15T13:26:56.358Z,24.60
2018-05-15T13:29:28.752Z,24.60
2018-05-15T13:32:01.217Z,24.80
2018-05-15T13:34:33.641Z,24.90
2018-05-15T13:37:06.691Z,24.90
2018-05-15T13:39:39.060Z,24.80
2018-05-15T13:42:11.368Z,24.90
2018-05-15T13:44:43.778Z,25.00
2018-05-15T13:47:16.069Z,24.90
2018-05-15T13:49:48.494Z,24.50
2018-05-15T13:52:21.648Z,24.20
2018-05-15T13:54:54.035Z,24.20
2018-05-15T13:57:26.326Z,24.00
2018-05-15T13:59:59.496Z,24.00
2018-05-15T14:02:31.828Z,24.00
2018-05-15T14:05:04.144Z,24.00
2018-05-15T14:07:36.479Z,24.00
2018-05-15T14:10:09.084Z,24.00
2018-05-15T14:12:41.448Z,24.10
2018-05-15T14:15:14.020Z,24.00
2018-05-15T14:17:46.413Z,23.80
2018-05-15T14:20:19.627Z,23.80
2018-05-15T14:22:51.903Z,23.80
2018-05-15T14:25:25.174Z,23.80
2018-05-15T14:27:58.229Z,23.80
2018-05-15T14:30:30.552Z,23.80
2018-05-15T14:33:03.591Z,23.70
2018-05-15T14:35:35.963Z,23.70
2018-05-15T14:38:08.231Z,23.70
2018-05-15T14:40:40.559Z,23.70
2018-05-15T14:43:25.218Z,23.80
2018-05-15T14:45:57.610Z,23.80
2018-05-15T14:48:30.015Z,23.90
2018-05-15T14:51:32.300Z,24.00
2018-05-15T14:54:10.735Z,24.10
2018-05-15T14:56:43.772Z,24.00
2018-05-15T14:59:16.164Z,24.00
2018-05-15T15:01:48.530Z,23.90
2018-05-15T15:04:20.813Z,23.80
2018-05-15T15:06:53.132Z,23.60
2018-05-15T15:09:26.111Z,23.50
2018-05-15T15:11:59.213Z,23.40
2018-05-15T15:14:31.566Z,23.30
2018-05-15T15:17:04.771Z,23.10
2018-05-15T15:19:37.919Z,23.00
2018-05-15T15:22:10.233Z,23.00
2018-05-15T15:24:42.533Z,23.00
2018-05-15T15:27:14.974Z,23.10
2018-05-15T15:29:48.054Z,23.10
2018-05-15T15:32:20.404Z,23.10
2018-05-15T15:34:52.762Z,23.10
2018-05-15T15:37:25.132Z,23.20
2018-05-15T15:39:57.481Z,23.10
2018-05-15T15:42:29.899Z,23.10
2018-05-15T15:45:02.239Z,23.00
2018-05-15T15:47:34.531Z,23.00
2018-05-15T15:50:06.881Z,22.90
2018-05-15T15:52:39.177Z,23.00
2018-05-15T15:55:11.468Z,22.90
2018-05-15T15:57:44.561Z,22.80
2018-05-15T16:00:17.716Z,22.80
2018-05-15T16:02:50.023Z,22.70
2018-05-15T16:05:23.569Z,22.60
2018-05-15T16:07:55.997Z,22.60
2018-05-15T16:10:29.059Z,22.70
2018-05-15T16:13:01.418Z,22.60
2018-05-15T16:15:33.799Z,22.60
2018-05-15T16:18:06.376Z,22.50
2018-05-15T16:20:38.846Z,22.50
2018-05-15T16:23:11.977Z,22.40
2018-05-15T16:25:45.466Z,22.40
2018-05-15T16:28:18.000Z,22.40
2018-05-15T16:30:50.263Z,22.30
2018-05-15T16:33:22.701Z,22.30
2018-05-15T16:35:55.840Z,22.30
2018-05-15T16:38:28.368Z,22.30
2018-05-15T16:41:01.513Z,22.30
2018-05-15T16:43:33.953Z,22.20
2018-05-15T16:46:06.325Z,22.20
2018-05-15T16:48:38.782Z,22.20
2018-05-15T16:51:11.932Z,22.10
2018-05-15T16:53:44.247Z,22.10
2018-05-15T16:56:17.419Z,21.90
2018-05-15T16:58:49.802Z,21.90
2018-05-15T17:01:22.891Z,21.90
2018-05-15T17:03:56.089Z,21.80
2018-05-15T17:06:29.216Z,21.80
2018-05-15T17:09:01.491Z,21.80
2018-05-15T17:11:34.642Z,21.70
2018-05-15T17:14:07.766Z,21.70
2018-05-15T17:16:41.040Z,21.70
2018-05-15T17:19:13.476Z,21.70
2018-05-15T17:21:45.813Z,21.60
2018-05-15T17:24:18.136Z,21.50
2018-05-15T17:26:51.230Z,21.40
2018-05-15T17:29:24.421Z,21.40
2018-05-15T17:31:57.547Z,21.30
2018-05-15T17:34:29.898Z,21.30
2018-05-15T17:37:02.230Z,21.30
2018-05-15T17:39:34.631Z,21.20
2018-05-15T17:42:07.826Z,21.10
2018-05-15T17:44:40.184Z,21.10
2018-05-15T17:47:13.274Z,21.00
2018-05-15T17:49:45.635Z,21.00
2018-05-15T17:52:17.980Z,20.90
2018-05-15T17:54:50.348Z,20.80
2018-05-15T17:57:22.750Z,20.80
2018-05-15T17:59:55.183Z,20.80
2018-05-15T18:02:27.538Z,20.70
2018-05-15T18:05:00.665Z,20.60
2018-05-15T18:07:33.083Z,20.60
2018-05-15T18:10:06.388Z,20.60
2018-05-15T18:12:38.633Z,20.60
2018-05-15T18:15:11.047Z,20.60
2018-05-15T18:17:44.112Z,20.50
2018-05-15T18:20:17.225Z,20.50
2018-05-15T18:22:49.650Z,20.50
2018-05-15T18:25:22.561Z,20.40
2018-05-15T18:27:55.621Z,20.40
2018-05-15T18:30:27.976Z,20.40
2018-05-15T18:33:00.307Z,20.40
2018-05-15T18:35:33.606Z,20.30
2018-05-15T18:38:05.951Z,20.30
2018-05-15T18:40:39.149Z,20.20
2018-05-15T18:43:11.592Z,20.20
2018-05-15T18:45:43.948Z,20.00
2018-05-15T18:48:16.220Z,19.90
2018-05-15T18:50:48.596Z,19.90
2018-05-15T18:53:20.882Z,19.80
2018-05-15T18:55:53.182Z,19.70
2018-05-15T18:58:26.298Z,19.60
2018-05-15T19:00:58.985Z,19.60
2018-05-15T19:03:31.405Z,19.50
2018-05-15T19:06:03.794Z,19.40
2018-05-15T19:08:36.150Z,19.40
2018-05-15T19:11:08.529Z,19.20
2018-05-15T19:13:40.880Z,19.10
2018-05-15T19:16:13.344Z,19.00
2018-05-15T19:18:45.696Z,18.90
2018-05-15T19:21:18.121Z,18.80
2018-05-15T19:23:50.427Z,18.70
2018-05-15T19:26:23.474Z,18.70
2018-05-15T19:28:56.000Z,18.60
2018-05-15T19:31:28.332Z,18.60
2018-05-15T19:34:00.933Z,18.60
2018-05-15T19:36:33.235Z,18.50
2018-05-15T19:39:06.281Z,18.40
2018-05-15T19:41:39.368Z,18.20
2018-05-15T19:44:11.677Z,18.20
2018-05-15T19:46:44.023Z,18.10
2018-05-15T19:49:17.165Z,18.10
2018-05-15T19:51:49.548Z,18.10
2018-05-15T19:54:21.783Z,18.20
2018-05-15T19:56:54.096Z,18.20
2018-05-15T19:59:26.459Z,18.20
2018-05-15T20:01:58.904Z,18.30
2018-05-15T20:04:31.198Z,18.30
2018-05-15T20:07:03.515Z,18.20
2018-05-15T20:09:36.652Z,18.20
2018-05-15T20:12:09.064Z,18.20
2018-05-15T20:14:41.399Z,18.20
2018-05-15T20:17:13.833Z,18.20
2018-05-15T20:19:46.277Z,18.20
2018-05-15T20:22:18.570Z,18.20
2018-05-15T20:24:51.713Z,18.10
2018-05-15T20:27:23.997Z,18.10
2018-05-15T20:29:56.284Z,18.20
2018-05-15T20:32:29.034Z,18.10
2018-05-15T20:35:01.575Z,18.10
2018-05-15T20:37:33.718Z,18.00
2018-05-15T20:40:05.983Z,18.00
2018-05-15T20:42:38.312Z,17.90
2018-05-15T20:45:10.648Z,17.80
2018-05-15T20:47:43.783Z,17.60
2018-05-15T20:50:16.247Z,17.60
2018-05-15T20:52:48.718Z,17.60
2018-05-15T20:55:21.069Z,17.60
2018-05-15T20:57:53.548Z,17.50
2018-05-15T21:00:25.970Z,17.40
2018-05-15T21:02:58.357Z,17.40
2018-05-15T21:05:30.652Z,17.40
2018-05-15T21:08:03.133Z,17.40
2018-05-15T21:10:36.220Z,17.30
2018-05-15T21:13:09.397Z,17.20
2018-05-15T21:15:41.719Z,17.20
2018-05-15T21:18:14.065Z,17.10
2018-05-15T21:20:46.473Z,17.00
2018-05-15T21:23:18.802Z,16.90
2018-05-15T21:25:51.947Z,16.70
2018-05-15T21:28:24.271Z,16.70
2018-05-15T21:30:56.575Z,16.70
2018-05-15T21:33:28.991Z,16.60
2018-05-15T21:36:02.167Z,16.40
2018-05-15T21:38:34.519Z,16.40
2018-05-15T21:41:06.741Z,16.40
2018-05-15T21:43:39.917Z,16.30
2018-05-15T21:46:12.187Z,16.20
2018-05-15T21:48:44.559Z,16.30
2018-05-15T21:51:16.819Z,16.40
2018-05-15T21:53:49.278Z,16.40
2018-05-15T21:56:21.647Z,16.50
2018-05-15T21:58:53.971Z,16.50
2018-05-15T22:01:26.250Z,16.50
2018-05-15T22:03:58.608Z,16.50
2018-05-15T22:06:30.935Z,16.50
2018-05-15T22:09:03.331Z,16.50
2018-05-15T22:11:35.364Z,16.60
2018-05-15T22:14:20.102Z,16.60
2018-05-15T22:17:04.755Z,16.60
2018-05-15T22:19:49.560Z,16.50
2018-05-15T22:22:21.822Z,16.50
2018-05-15T22:24:54.184Z,16.50
2018-05-15T22:27:26.653Z,16.50
2018-05-15T22:29:59.076Z,16.50
2018-05-15T22:32:32.223Z,16.60
2018-05-15T22:35:04.659Z,16.50
2018-05-15T22:37:37.005Z,16.60
2018-05-15T22:40:10.109Z,16.60
2018-05-15T22:42:43.183Z,16.60
2018-05-15T22:45:16.349Z,16.60
2018-05-15T22:47:48.725Z,16.60
2018-05-15T22:50:21.198Z,16.60
2018-05-15T22:52:54.563Z,16.50
2018-05-15T22:55:27.041Z,16.50
2018-05-15T22:57:59.343Z,16.50
2018-05-15T23:00:31.733Z,16.40
2018-05-15T23:03:03.933Z,16.40
2018-05-15T23:05:37.066Z,16.40
2018-05-15T23:08:09.373Z,16.30
2018-05-15T23:10:41.867Z,16.30
2018-05-15T23:13:14.119Z,16.30
2018-05-15T23:15:46.679Z,16.30
2018-05-15T23:18:19.001Z,16.30
2018-05-15T23:20:51.427Z,16.30
2018-05-15T23:23:23.782Z,16.30
2018-05-15T23:25:56.099Z,16.30
2018-05-15T23:28:29.192Z,16.30
2018-05-15T23:31:02.319Z,16.30
2018-05-15T23:33:34.625Z,16.30
2018-05-15T23:36:07.029Z,16.30
2018-05-15T23:38:40.181Z,16.40
2018-05-15T23:41:12.589Z,16.40
2018-05-15T23:43:45.663Z,16.30
2018-05-15T23:46:17.999Z,16.30
2018-05-15T23:48:50.291Z,16.30
2018-05-15T23:51:22.575Z,16.30
2018-05-15T23:53:55.754Z,16.20
2018-05-15T23:56:28.137Z,16.20
2018-05-15T23:59:00.394Z,16.20
